Luther, Oklahoma
Current Conditions -  °F | °C
As of 11:53 PM on Tuesday 25 Nov 2014 (Local Time) from KGOK Reporting Station
Clear Clear  
Wind Chill: 38°   Ceiling: Unl
Heat Index: 43°   Visibility: 10mi
Dew Point: 26°   Wind: 9mph
Humidity: 51%   Direction: 150°SSE
Pressure: 29.98"   Gusts: NA
Location:  35.66°N, 97.2°W
Report Text: KGOK 260553Z AUTO 15008KT 10SM CLR 06/M03 A2998 RMK AO2 SLP155 T00611033 10083 20061 401171044 56023
Loading
Personal Weather Stations






























Interactive Weather Map New forecast layout! Learn more

10-Day Weather Forecast

Advertisements
Track Severe Weather on mobile